Time;durP1;ratioP1;P1;durP2;ratioP2;P2;SDS_P1;SDS_P2;PMS_P1;PMS_P2;Temp;Humidity;BMP_temperature;BMP_pressure;BME280_temperature;BME280_humidity;BME280_pressure;Samples;Min_cycle;Max_cycle;Signal;HPM_P1;HPM_P2
2022/09/03 00:02:25;;;;;;;6.30;2.75;;;;;;;17.55;44.68;100976.19;5058252;28;20029;-47
2022/09/03 00:05:04;;;;;;;7.25;2.92;;;;;;;17.53;44.92;100987.09;5063901;28;20029;-47
2022/09/03 00:07:42;;;;;;;5.25;2.72;;;;;;;17.51;44.61;100982.91;5042516;28;20033;-46
2022/09/03 00:10:13;;;;;;;7.50;3.03;;;;;;;17.42;45.27;100984.69;5054404;28;20025;-47
2022/09/03 00:12:43;;;;;;;4.78;2.60;;;;;;;17.36;45.70;100977.28;5039584;28;20029;-47
2022/09/03 00:15:13;;;;;;;6.20;2.80;;;;;;;17.30;45.51;100976.06;5049760;28;20052;-47
2022/09/03 00:17:44;;;;;;;5.32;2.90;;;;;;;17.29;45.79;100978.91;5055117;28;20056;-48
2022/09/03 00:20:21;;;;;;;4.63;2.75;;;;;;;17.27;45.45;100976.38;5053390;28;20032;-48
2022/09/03 00:22:51;;;;;;;8.38;2.80;;;;;;;17.22;45.74;100975.16;5054664;28;20025;-47
2022/09/03 00:25:23;;;;;;;5.72;2.65;;;;;;;17.18;45.83;100980.84;5054523;28;20062;-49
2022/09/03 00:27:53;;;;;;;5.95;3.25;;;;;;;17.16;46.10;100974.78;5048025;28;20380;-47
2022/09/03 00:30:19;;;;;;;6.15;2.50;;;;;;;17.14;46.01;100976.78;5054267;28;20490;-46
2022/09/03 00:32:49;;;;;;;7.40;3.10;;;;;;;17.13;45.79;100971.59;5052820;28;20048;-47
2022/09/03 00:35:23;;;;;;;4.28;2.50;;;;;;;17.12;46.20;100973.44;5047649;28;20112;-47
2022/09/03 00:37:50;;;;;;;4.88;3.03;;;;;;;17.10;46.32;100977.25;5054244;28;20433;-47
2022/09/03 00:40:30;;;;;;;7.22;3.28;;;;;;;17.08;46.21;100979.28;5054281;28;20024;-47
2022/09/03 00:43:41;;;;;;;6.65;3.10;;;;;;;17.08;45.71;100977.41;5050622;28;20434;-50
2022/09/03 00:46:23;;;;;;;5.25;3.13;;;;;;;16.98;46.53;100977.50;5052954;28;20024;-48
2022/09/03 00:48:57;;;;;;;5.70;3.33;;;;;;;16.94;46.81;100973.47;5053912;28;20501;-48
2022/09/03 00:51:43;;;;;;;8.38;3.30;;;;;;;16.92;46.31;100977.28;5054429;28;20051;-50
2022/09/03 00:54:31;;;;;;;5.20;3.55;;;;;;;16.86;46.95;100975.25;5051045;28;20393;-47
2022/09/03 00:57:26;;;;;;;7.83;3.90;;;;;;;16.90;46.27;100977.44;5053268;28;20540;-50
2022/09/03 01:00:09;;;;;;;6.43;3.05;;;;;;;16.83;47.00;100976.34;5051872;28;20036;-48
2022/09/03 01:02:46;;;;;;;7.40;3.55;;;;;;;16.85;47.03;100974.38;5052703;28;20024;-50
2022/09/03 01:05:26;;;;;;;11.50;3.50;;;;;;;16.79;47.26;100975.84;5053814;28;20024;-47
2022/09/03 01:08:24;;;;;;;6.30;3.40;;;;;;;16.78;46.65;100974.13;5041127;28;20032;-47
2022/09/03 01:10:56;;;;;;;5.90;3.47;;;;;;;16.74;47.43;100977.31;5044563;28;20044;-49
2022/09/03 01:13:35;;;;;;;7.07;3.42;;;;;;;16.74;47.66;100966.56;5052671;28;20029;-48
2022/09/03 01:16:04;;;;;;;7.07;3.63;;;;;;;16.67;47.86;100966.34;5049994;28;20032;-50
2022/09/03 01:18:54;;;;;;;5.72;3.47;;;;;;;16.65;47.35;100958.47;5048072;28;20120;-48
2022/09/03 01:22:02;;;;;;;8.63;3.58;;;;;;;16.66;46.97;100959.28;5052805;28;20040;-47
2022/09/03 01:24:45;;;;;;;6.53;3.55;;;;;;;16.58;47.34;100962.72;5032894;28;20382;-46
2022/09/03 01:27:25;;;;;;;6.90;3.60;;;;;;;16.50;47.79;100964.50;5039829;28;20082;-48
2022/09/03 01:30:17;;;;;;;7.45;3.30;;;;;;;16.51;47.66;100969.72;5053263;28;20099;-47
2022/09/03 01:32:55;;;;;;;8.52;4.03;;;;;;;16.48;47.76;100970.03;5045240;28;20493;-47
2022/09/03 01:35:37;;;;;;;9.20;3.93;;;;;;;16.43;47.84;100961.59;5040991;28;20051;-46
2022/09/03 01:38:08;;;;;;;5.55;3.90;;;;;;;16.40;48.09;100977.97;5053242;28;20039;-47
2022/09/03 01:40:49;;;;;;;7.65;4.03;;;;;;;16.38;48.44;100971.94;5044608;28;20527;-48
2022/09/03 01:43:34;;;;;;;5.28;3.35;;;;;;;16.33;48.50;100976.91;5051251;28;20120;-46
2022/09/03 01:46:25;;;;;;;8.70;3.83;;;;;;;16.35;47.62;100962.34;5052898;28;20178;-46
2022/09/03 01:49:29;;;;;;;6.75;3.78;;;;;;;16.33;47.92;100969.72;5047654;28;20073;-47
2022/09/03 01:52:25;;;;;;;6.40;4.55;;;;;;;16.28;48.22;100962.13;5043257;28;20474;-48
2022/09/03 01:55:28;;;;;;;10.77;4.57;;;;;;;16.27;48.05;100971.16;5034112;28;20046;-47
2022/09/03 01:58:01;;;;;;;8.95;4.40;;;;;;;16.20;49.09;100969.22;5052520;28;20037;-47
2022/09/03 02:00:29;;;;;;;6.07;3.97;;;;;;;16.16;49.44;100975.91;5066058;28;20106;-46
2022/09/03 02:02:54;;;;;;;8.93;4.43;;;;;;;16.16;49.54;100982.09;5064107;28;20021;-49
2022/09/03 02:05:26;;;;;;;10.68;5.20;;;;;;;16.12;49.73;100975.38;5065277;28;20040;-49
2022/09/03 02:08:04;;;;;;;7.60;4.18;;;;;;;16.12;49.10;100966.47;5052343;28;20033;-50
2022/09/03 02:10:38;;;;;;;6.50;4.40;;;;;;;16.03;49.67;100962.84;5040225;28;20087;-50
2022/09/03 02:13:10;;;;;;;12.18;4.82;;;;;;;16.01;49.46;100965.69;5052205;28;20033;-49
2022/09/03 02:15:39;;;;;;;7.90;4.53;;;;;;;15.99;49.72;100967.69;5055587;28;20031;-48
2022/09/03 02:18:12;;;;;;;11.32;4.88;;;;;;;15.94;50.08;100963.75;5055989;28;20033;-48
2022/09/03 02:20:38;;;;;;;9.45;4.55;;;;;;;15.93;49.75;100962.06;5051917;28;20529;-50
2022/09/03 02:23:04;;;;;;;5.75;4.18;;;;;;;15.90;49.92;100961.38;5040141;28;20368;-49
2022/09/03 02:25:37;;;;;;;8.38;4.32;;;;;;;15.85;50.36;100965.50;5049993;28;20028;-47
2022/09/03 02:28:05;;;;;;;7.22;4.28;;;;;;;15.84;49.60;100966.50;5051998;28;20029;-50
2022/09/03 02:30:30;;;;;;;9.05;4.80;;;;;;;15.82;49.96;100965.78;5049217;28;20430;-46
2022/09/03 02:32:56;;;;;;;10.30;4.60;;;;;;;15.84;49.42;100969.19;5051406;28;20025;-47
2022/09/03 02:35:21;;;;;;;10.57;4.75;;;;;;;15.80;50.05;100967.78;5043633;28;20074;-48
2022/09/03 02:37:47;;;;;;;8.63;4.60;;;;;;;15.79;49.89;100971.47;5062277;28;20029;-49
2022/09/03 02:40:12;;;;;;;6.90;4.75;;;;;;;15.78;49.76;100967.09;5064760;28;20025;-46
2022/09/03 02:42:37;;;;;;;14.25;5.13;;;;;;;15.74;49.98;100974.56;5048603;28;20059;-46
2022/09/03 02:45:18;;;;;;;8.68;4.63;;;;;;;15.72;49.87;100955.94;5064173;28;20036;-50
2022/09/03 02:47:47;;;;;;;11.35;4.93;;;;;;;15.66;50.75;100961.06;5071488;28;20024;-48
2022/09/03 02:50:13;;;;;;;8.85;5.38;;;;;;;15.67;49.96;100960.91;5070884;28;20409;-47
2022/09/03 02:52:38;;;;;;;12.63;5.20;;;;;;;15.65;50.22;100964.72;5048168;28;20045;-47
2022/09/03 02:55:04;;;;;;;10.57;5.53;;;;;;;15.63;49.98;100964.84;5070811;28;20120;-47
2022/09/03 02:57:29;;;;;;;8.25;5.35;;;;;;;15.63;50.15;100966.69;5074947;28;20059;-47
2022/09/03 02:59:55;;;;;;;10.97;5.63;;;;;;;15.60;50.48;100962.47;5062729;28;20033;-48
2022/09/03 03:02:20;;;;;;;11.65;6.10;;;;;;;15.59;50.66;100965.28;5068970;28;20317;-47
2022/09/03 03:04:45;;;;;;;9.97;5.47;;;;;;;15.61;50.64;100964.16;5074830;28;20050;-48
2022/09/03 03:07:10;;;;;;;10.02;5.03;;;;;;;15.58;51.23;100969.81;5068027;28;20318;-48
2022/09/03 03:09:36;;;;;;;11.30;5.77;;;;;;;15.53;51.62;100972.09;5055266;28;20397;-47
2022/09/03 03:12:01;;;;;;;12.18;5.85;;;;;;;15.58;50.89;100969.81;5050969;28;20287;-47
2022/09/03 03:14:26;;;;;;;10.82;5.45;;;;;;;15.57;50.63;100976.19;5054950;28;20037;-48
2022/09/03 03:16:52;;;;;;;13.00;5.30;;;;;;;15.57;50.60;100968.16;5055288;28;20020;-48
2022/09/03 03:19:17;;;;;;;11.70;5.37;;;;;;;15.56;51.40;100969.13;5055029;28;20275;-49
2022/09/03 03:21:42;;;;;;;10.10;5.53;;;;;;;15.53;50.71;100967.56;5049418;28;20292;-47
2022/09/03 03:24:08;;;;;;;11.73;4.80;;;;;;;15.52;51.09;100965.03;5054927;28;20462;-47
2022/09/03 03:26:33;;;;;;;12.45;5.50;;;;;;;15.50;50.84;100964.34;5054978;28;20033;-47
2022/09/03 03:29:03;;;;;;;10.70;5.40;;;;;;;15.45;51.23;100967.47;5050756;28;20021;-46
2022/09/03 03:31:28;;;;;;;9.02;5.30;;;;;;;15.41;51.48;100967.91;5073568;28;20037;-47
2022/09/03 03:33:56;;;;;;;12.00;5.35;;;;;;;15.38;51.62;100970.88;5067206;28;20436;-47
2022/09/03 03:36:24;;;;;;;13.48;5.35;;;;;;;15.40;51.30;100956.34;5043715;28;20079;-47
2022/09/03 03:38:52;;;;;;;9.80;5.03;;;;;;;15.38;51.28;100968.22;5048264;28;20031;-48
2022/09/03 03:41:21;;;;;;;9.83;4.93;;;;;;;15.30;51.80;100961.72;5073220;28;20017;-46
2022/09/03 03:43:46;;;;;;;11.10;5.57;;;;;;;15.33;51.30;100966.78;5065976;28;20386;-47
2022/09/03 03:46:13;;;;;;;10.25;5.07;;;;;;;15.32;51.75;100965.13;5068234;28;20054;-46
2022/09/03 03:48:39;;;;;;;10.30;5.43;;;;;;;15.29;51.79;100964.59;5060304;28;20022;-47
2022/09/03 03:51:07;;;;;;;9.57;5.40;;;;;;;15.29;51.47;100968.09;5062118;28;20386;-48
2022/09/03 03:53:34;;;;;;;7.65;4.63;;;;;;;15.24;51.76;100967.69;5061877;28;20485;-48
2022/09/03 03:56:01;;;;;;;10.77;5.00;;;;;;;15.24;52.05;100973.03;5072198;28;20028;-47
2022/09/03 03:58:28;;;;;;;9.52;5.38;;;;;;;15.22;51.62;100972.34;5048109;28;20463;-47
2022/09/03 04:00:53;;;;;;;10.52;5.18;;;;;;;15.21;52.14;100973.31;5054263;28;20033;-47
2022/09/03 04:03:19;;;;;;;13.30;5.30;;;;;;;15.23;51.85;100971.34;5051465;28;20112;-46
2022/09/03 04:05:58;;;;;;;11.93;5.35;;;;;;;15.21;51.37;100967.97;5050610;28;20029;-47
2022/09/03 04:08:24;;;;;;;10.77;5.63;;;;;;;15.19;51.69;100969.97;5054511;28;20486;-47
2022/09/03 04:10:49;;;;;;;12.85;4.97;;;;;;;15.19;51.57;100961.94;5051163;28;20021;-47
2022/09/03 04:13:14;;;;;;;7.82;4.85;;;;;;;15.16;51.61;100965.72;5054243;28;20036;-47
2022/09/03 04:15:41;;;;;;;7.17;4.60;;;;;;;15.15;51.57;100966.72;5054836;28;20028;-47
2022/09/03 04:18:07;;;;;;;10.27;4.72;;;;;;;15.15;51.79;100968.53;5054585;28;20267;-48
2022/09/03 04:20:34;;;;;;;10.15;5.03;;;;;;;15.15;51.97;100963.19;5053310;28;20043;-46
2022/09/03 04:23:00;;;;;;;11.23;5.45;;;;;;;15.12;51.72;100958.13;5054625;28;20498;-47
2022/09/03 04:25:25;;;;;;;11.15;5.38;;;;;;;15.13;51.77;100959.81;5054766;28;20021;-47
2022/09/03 04:27:51;;;;;;;9.43;4.93;;;;;;;15.11;51.92;100959.13;5051615;28;20478;-49
2022/09/03 04:30:16;;;;;;;8.85;5.03;;;;;;;15.08;52.06;100960.25;5054096;28;20044;-47
2022/09/03 04:32:54;;;;;;;10.60;4.78;;;;;;;15.08;51.90;100959.41;5053891;28;20086;-48
2022/09/03 04:35:24;;;;;;;6.05;4.30;;;;;;;15.06;51.60;100953.38;5058584;28;20025;-47
2022/09/03 04:37:50;;;;;;;13.07;5.25;;;;;;;15.06;52.04;100959.56;5058040;28;20024;-47
2022/09/03 04:40:16;;;;;;;8.23;4.93;;;;;;;15.06;52.07;100962.22;5048639;28;20379;-47
2022/09/03 04:42:41;;;;;;;10.95;4.93;;;;;;;15.06;52.16;100961.41;5053405;28;20060;-48
2022/09/03 04:45:07;;;;;;;10.43;5.10;;;;;;;15.05;52.02;100957.03;5053439;28;20021;-46
2022/09/03 04:47:35;;;;;;;7.90;4.88;;;;;;;15.04;52.32;100963.34;5053061;28;20064;-47
2022/09/03 04:50:01;;;;;;;8.23;4.35;;;;;;;15.04;52.12;100958.84;5047252;28;20497;-47
2022/09/03 04:52:30;;;;;;;7.28;4.55;;;;;;;15.01;52.69;100960.97;5053283;28;20057;-49
2022/09/03 04:54:55;;;;;;;10.15;4.82;;;;;;;15.04;52.86;100969.56;5041539;28;20025;-47
2022/09/03 04:57:21;;;;;;;10.25;4.68;;;;;;;15.02;52.84;100962.66;5049820;28;20090;-48
2022/09/03 04:59:47;;;;;;;8.82;4.95;;;;;;;14.99;52.76;100969.97;5058573;28;20347;-47
2022/09/03 05:02:14;;;;;;;10.70;5.47;;;;;;;14.97;52.80;100957.72;5065850;28;20037;-47
2022/09/03 05:04:39;;;;;;;11.63;5.35;;;;;;;14.96;53.28;100969.44;5071493;28;20040;-46
2022/09/03 05:07:05;;;;;;;9.70;5.35;;;;;;;14.96;53.19;100970.25;5072350;28;20465;-49
2022/09/03 05:09:30;;;;;;;10.53;5.27;;;;;;;14.95;53.01;100971.28;5065748;28;20029;-47
2022/09/03 05:11:55;;;;;;;9.43;5.63;;;;;;;14.97;52.88;100966.63;5058422;28;20271;-47
2022/09/03 05:14:20;;;;;;;9.40;5.20;;;;;;;14.95;52.96;100959.72;5070522;28;20416;-49
2022/09/03 05:16:46;;;;;;;9.80;4.82;;;;;;;14.97;53.16;100960.41;5070317;28;20617;-49
2022/09/03 05:19:11;;;;;;;12.07;5.35;;;;;;;14.96;53.00;100964.91;5068266;28;20119;-47
2022/09/03 05:21:36;;;;;;;12.13;5.70;;;;;;;14.96;53.07;100962.25;5059626;28;20060;-46
2022/09/03 05:24:03;;;;;;;10.88;5.32;;;;;;;14.98;52.93;100959.44;5070040;28;20522;-47
2022/09/03 05:26:31;;;;;;;10.68;5.20;;;;;;;14.96;53.50;100959.56;5070107;28;20024;-48
2022/09/03 05:29:01;;;;;;;10.70;5.53;;;;;;;14.98;53.63;100962.09;5069712;28;20034;-47
2022/09/03 05:31:30;;;;;;;9.60;5.53;;;;;;;14.96;53.12;100959.56;5064241;28;20043;-47
2022/09/03 05:33:58;;;;;;;12.50;5.73;;;;;;;14.95;53.39;100957.91;5050785;28;20021;-46
2022/09/03 05:36:26;;;;;;;11.65;5.55;;;;;;;14.99;52.73;100956.59;5052315;28;20028;-46
2022/09/03 05:38:54;;;;;;;10.77;5.45;;;;;;;15.01;53.41;100960.97;5046153;28;20068;-47
2022/09/03 05:41:21;;;;;;;9.50;5.32;;;;;;;15.05;53.18;100962.38;5058858;28;20021;-46
2022/09/03 05:43:54;;;;;;;14.25;5.90;;;;;;;15.02;53.13;100957.31;5050451;28;20473;-46
2022/09/03 05:46:26;;;;;;;10.82;6.22;;;;;;;15.05;53.63;100971.22;5069686;28;20029;-46
2022/09/03 05:48:51;;;;;;;12.98;6.13;;;;;;;15.09;53.26;100963.78;5050687;28;20028;-47
2022/09/03 05:51:17;;;;;;;11.82;5.55;;;;;;;15.12;53.49;100967.00;5068475;28;20023;-47
2022/09/03 05:53:45;;;;;;;11.70;6.45;;;;;;;15.17;53.18;100974.59;5050490;28;20422;-47
2022/09/03 05:56:19;;;;;;;14.70;5.75;;;;;;;15.20;52.86;100968.94;5071536;28;20095;-47
2022/09/03 05:58:47;;;;;;;11.75;5.45;;;;;;;15.27;53.26;100963.84;5071644;28;20060;-47
2022/09/03 06:01:16;;;;;;;11.55;6.10;;;;;;;15.31;52.72;100962.59;5049452;28;20063;-47
2022/09/03 06:03:43;;;;;;;13.60;5.47;;;;;;;15.36;52.67;100965.66;5071652;28;20106;-46
2022/09/03 06:06:09;;;;;;;12.65;5.72;;;;;;;15.42;52.92;100964.22;5071605;28;20032;-46
2022/09/03 06:08:39;;;;;;;12.07;5.53;;;;;;;15.49;52.48;100955.47;5053329;28;20108;-46
2022/09/03 06:11:05;;;;;;;8.95;5.20;;;;;;;15.56;52.91;100968.28;5050633;28;20078;-45
2022/09/03 06:13:31;;;;;;;10.70;5.40;;;;;;;15.60;52.56;100965.16;5047974;28;20086;-47
2022/09/03 06:16:04;;;;;;;9.07;5.25;;;;;;;15.66;52.20;100964.56;5051946;28;20028;-48
2022/09/03 06:18:30;;;;;;;10.98;5.65;;;;;;;15.72;52.42;100963.13;5052183;28;20039;-47
2022/09/03 06:20:57;;;;;;;11.15;5.32;;;;;;;15.78;52.04;100967.91;5046889;28;20070;-47
2022/09/03 06:23:23;;;;;;;12.35;4.88;;;;;;;15.83;51.71;100959.44;5062885;28;20393;-47
2022/09/03 06:26:02;;;;;;;15.80;5.70;;;;;;;15.89;51.62;100962.38;5046859;28;20037;-47
2022/09/03 06:28:27;;;;;;;9.45;5.43;;;;;;;15.97;51.88;100964.31;5050663;28;20044;-47
2022/09/03 06:30:56;;;;;;;11.02;5.03;;;;;;;16.03;51.19;100962.84;5043623;28;20090;-47
2022/09/03 06:33:23;;;;;;;11.18;5.63;;;;;;;16.09;51.39;100962.25;5044199;28;20112;-47
2022/09/03 06:35:56;;;;;;;13.70;5.78;;;;;;;16.17;51.29;100958.81;5049287;28;20032;-49
2022/09/03 06:38:21;;;;;;;11.05;5.90;;;;;;;16.25;51.23;100965.13;5042384;28;20053;-47
2022/09/03 06:40:51;;;;;;;14.55;5.50;;;;;;;16.36;51.14;100971.25;5047372;28;20489;-47
2022/09/03 06:43:17;;;;;;;15.00;5.88;;;;;;;16.45;51.15;100970.31;5056877;28;20052;-46
2022/09/03 06:45:42;;;;;;;9.80;5.30;;;;;;;16.55;50.59;100965.72;5054673;28;20036;-47
2022/09/03 06:48:07;;;;;;;11.10;5.53;;;;;;;16.63;49.93;100975.69;5044936;28;20320;-48
2022/09/03 06:50:32;;;;;;;17.73;6.20;;;;;;;16.72;50.31;100968.53;5041769;28;20642;-49
2022/09/03 06:52:58;;;;;;;12.40;5.47;;;;;;;16.80;50.17;100968.63;5044871;28;20302;-47
2022/09/03 06:55:23;;;;;;;10.83;5.60;;;;;;;16.89;49.37;100961.53;5047621;28;20337;-47
2022/09/03 06:57:49;;;;;;;9.40;5.47;;;;;;;16.97;49.11;100972.28;5054339;28;20275;-47
2022/09/03 07:00:15;;;;;;;14.23;5.45;;;;;;;17.06;49.36;100968.69;5050060;28;20294;-47
2022/09/03 07:02:40;;;;;;;10.20;5.60;;;;;;;17.18;49.74;100971.94;5054687;28;20515;-48
2022/09/03 07:05:07;;;;;;;19.83;6.37;;;;;;;17.28;49.05;100969.16;5046655;28;20037;-48
2022/09/03 07:07:33;;;;;;;10.75;5.60;;;;;;;17.42;48.92;100970.41;5038865;28;20363;-48
2022/09/03 07:09:58;;;;;;;12.85;5.75;;;;;;;17.57;48.82;100977.72;5040558;28;20129;-48
2022/09/03 07:12:23;;;;;;;8.18;5.05;;;;;;;17.69;48.11;100975.59;5038337;28;20049;-47
2022/09/03 07:14:49;;;;;;;11.63;5.17;;;;;;;17.80;48.38;100974.44;5045056;28;20394;-48
2022/09/03 07:17:15;;;;;;;9.32;5.05;;;;;;;17.97;48.09;100975.41;5039785;28;20295;-51
2022/09/03 07:19:40;;;;;;;13.02;5.03;;;;;;;18.16;48.39;100976.13;5037133;28;20044;-50
2022/09/03 07:22:06;;;;;;;13.03;4.83;;;;;;;18.29;47.14;100969.25;5041404;28;20060;-50
2022/09/03 07:24:31;;;;;;;12.90;4.30;;;;;;;18.48;47.54;100972.66;5037996;28;20276;-49
2022/09/03 07:26:56;;;;;;;13.70;4.10;;;;;;;18.66;46.83;100973.34;5041837;28;20036;-50
2022/09/03 07:29:22;;;;;;;8.60;3.60;;;;;;;18.80;45.72;100976.38;5039946;28;20347;-48
2022/09/03 07:31:51;;;;;;;5.00;3.00;;;;;;;18.99;45.90;100973.38;5036190;28;20109;-48
2022/09/03 07:34:16;;;;;;;;;;;;;;;19.16;46.10;100974.19;5054377;28;20079;-48
2022/09/03 07:36:45;;;;;;;5.60;2.40;;;;;;;19.30;44.45;100978.06;5051904;28;20005;-50
2022/09/03 07:39:11;;;;;;;;;;;;;;;19.33;45.43;100975.00;5049853;28;20497;-48
2022/09/03 07:41:37;;;;;;;3.90;2.08;;;;;;;19.22;43.99;100981.59;5059624;28;19912;-48
2022/09/03 07:44:06;;;;;;;3.17;1.95;;;;;;;19.27;44.05;100974.84;5058090;28;20025;-48
2022/09/03 07:46:35;;;;;;;3.42;2.08;;;;;;;19.53;44.67;100985.38;5061673;28;20025;-48
2022/09/03 07:49:01;;;;;;;3.15;1.85;;;;;;;19.78;43.98;100976.25;5053548;28;20463;-51
2022/09/03 07:51:29;;;;;;;3.35;2.00;;;;;;;20.02;42.66;100977.13;5033038;28;20120;-51
2022/09/03 07:53:57;;;;;;;7.07;2.10;;;;;;;20.28;42.30;100973.28;5037401;28;20056;-50
2022/09/03 07:56:23;;;;;;;3.67;1.95;;;;;;;20.59;42.55;100967.00;5037635;28;20398;-48
2022/09/03 07:58:49;;;;;;;1.73;1.50;;;;;;;20.80;42.07;100972.59;5041351;28;20043;-48
2022/09/03 08:01:17;;;;;;;4.50;1.73;;;;;;;21.07;41.29;100973.88;5062420;28;20029;-42
2022/09/03 08:03:45;;;;;;;5.13;1.80;;;;;;;21.35;40.67;100975.94;5066575;28;20021;-42
2022/09/03 08:06:11;;;;;;;2.70;1.40;;;;;;;21.65;40.43;100978.69;5063511;28;20033;-42
2022/09/03 08:08:37;;;;;;;6.82;1.75;;;;;;;21.85;39.90;100978.94;5059363;28;20039;-45
2022/09/03 08:11:13;;;;;;;9.38;1.60;;;;;;;22.11;40.08;100974.88;5085460;28;20029;-42
2022/09/03 08:13:47;;;;;;;4.88;1.58;;;;;;;22.40;39.55;100971.28;5063696;28;20029;-42
2022/09/03 08:16:15;;;;;;;6.65;1.63;;;;;;;22.65;38.81;100973.56;5083663;28;20058;-42
2022/09/03 08:18:40;;;;;;;4.75;1.70;;;;;;;22.90;38.23;100966.75;5071715;28;20064;-42
2022/09/03 08:21:08;;;;;;;6.07;1.50;;;;;;;23.05;37.91;100974.78;5079192;28;20040;-42
2022/09/03 08:23:37;;;;;;;2.58;1.30;;;;;;;23.31;37.68;100978.72;5062850;28;20293;-43
2022/09/03 08:26:03;;;;;;;3.10;1.60;;;;;;;23.60;37.10;100977.66;5050910;28;20262;-42
2022/09/03 08:28:29;;;;;;;3.50;1.30;;;;;;;23.81;36.12;100979.44;5055679;28;20021;-42
2022/09/03 08:30:54;;;;;;;4.18;1.40;;;;;;;23.97;35.87;100978.25;5058927;28;20097;-42
2022/09/03 08:33:35;;;;;;;6.38;1.80;;;;;;;24.13;35.94;100979.78;5063674;28;20048;-43
2022/09/03 08:36:05;;;;;;;3.13;1.38;;;;;;;24.50;35.48;100979.47;5051993;28;20029;-42
2022/09/03 08:38:32;;;;;;;2.83;1.40;;;;;;;24.69;34.95;100980.56;5055146;28;20028;-42
2022/09/03 08:41:11;;;;;;;3.13;1.30;;;;;;;24.99;35.26;100982.84;5047791;28;20017;-43
2022/09/03 08:44:16;;;;;;;5.95;1.65;;;;;;;25.25;35.65;100982.84;5055013;28;20378;-42
2022/09/03 08:47:11;;;;;;;7.10;1.42;;;;;;;25.46;34.63;100992.66;5047332;28;20537;-43
2022/09/03 08:49:42;;;;;;;4.22;1.48;;;;;;;25.66;33.19;100986.31;5068991;28;20033;-44
2022/09/03 08:52:32;;;;;;;7.32;2.22;;;;;;;25.81;32.22;100988.78;5056215;28;20045;-43
2022/09/03 08:55:27;;;;;;;4.55;1.50;;;;;;;26.06;33.51;100988.91;5064470;28;20092;-43
2022/09/03 08:58:19;;;;;;;4.70;1.90;;;;;;;26.22;33.46;100979.41;5058880;28;20058;-43
2022/09/03 09:01:05;;;;;;;4.30;1.38;;;;;;;26.37;32.84;100981.84;5055043;28;20116;-44
2022/09/03 09:03:46;;;;;;;2.80;1.35;;;;;;;26.49;31.53;100973.78;5049202;28;20056;-43
2022/09/03 09:06:42;;;;;;;6.63;1.52;;;;;;;26.69;32.11;100981.84;5047267;28;20037;-43
2022/09/03 09:09:35;;;;;;;2.08;1.20;;;;;;;26.85;32.64;100986.75;5044085;28;20025;-43
2022/09/03 09:12:09;;;;;;;4.72;1.50;;;;;;;27.16;31.54;100981.44;5053109;28;20049;-43
2022/09/03 09:15:09;;;;;;;5.30;1.50;;;;;;;27.48;32.25;100987.66;5053174;28;20407;-44
2022/09/03 09:17:34;;;;;;;5.60;1.92;;;;;;;27.87;29.85;100983.63;5052354;28;20124;-43
2022/09/03 09:20:22;;;;;;;5.87;1.97;;;;;;;28.18;30.92;100994.63;5056642;28;20547;-44
2022/09/03 09:22:53;;;;;;;2.92;1.42;;;;;;;28.27;29.34;100987.75;5058010;28;20029;-43
2022/09/03 09:25:21;;;;;;;6.07;1.35;;;;;;;28.19;28.22;100990.81;5046813;28;20104;-43
2022/09/03 09:27:59;;;;;;;3.42;1.20;;;;;;;28.45;29.46;100991.50;5055258;28;20387;-44
2022/09/03 09:30:26;;;;;;;5.53;1.50;;;;;;;28.60;28.42;100983.72;5047733;28;20035;-42
2022/09/03 09:32:51;;;;;;;4.70;1.42;;;;;;;28.82;28.20;100984.00;5052084;28;20038;-42
2022/09/03 09:35:17;;;;;;;4.03;1.30;;;;;;;28.98;27.61;100979.75;5064373;28;20039;-44
2022/09/03 09:38:01;;;;;;;4.47;1.77;;;;;;;29.11;28.43;100975.91;5075513;28;20036;-42
2022/09/03 09:40:32;;;;;;;6.25;1.60;;;;;;;29.40;27.46;100965.94;5064463;28;20129;-42
2022/09/03 09:43:05;;;;;;;3.25;1.70;;;;;;;29.70;26.98;100970.41;5070498;28;20103;-42
2022/09/03 09:45:32;;;;;;;3.38;1.40;;;;;;;29.63;26.99;100981.50;5071587;28;20111;-43
2022/09/03 09:47:58;;;;;;;4.23;1.30;;;;;;;29.82;26.99;100975.88;5073194;28;20029;-43
2022/09/03 09:50:23;;;;;;;3.80;1.40;;;;;;;29.99;25.80;100978.69;5075145;28;20309;-44
2022/09/03 09:52:59;;;;;;;5.27;1.40;;;;;;;30.15;26.84;100980.66;5070487;28;20048;-44
2022/09/03 09:55:25;;;;;;;5.38;1.40;;;;;;;30.24;25.58;100983.81;5075307;28;20284;-43
2022/09/03 09:58:03;;;;;;;2.85;1.30;;;;;;;30.25;25.61;100977.25;5076292;28;20076;-43
2022/09/03 10:00:28;;;;;;;4.28;1.60;;;;;;;30.18;25.14;100976.59;5090367;28;20063;-42
2022/09/03 10:02:53;;;;;;;5.87;1.60;;;;;;;30.36;25.67;100967.31;5091024;28;20525;-43
2022/09/03 10:05:26;;;;;;;2.13;1.17;;;;;;;30.42;26.14;100978.16;5092246;28;20305;-42
2022/09/03 10:07:58;;;;;;;4.00;1.30;;;;;;;30.62;24.84;100974.91;5093333;28;20058;-42
2022/09/03 10:10:24;;;;;;;5.80;1.73;;;;;;;30.70;25.27;100981.09;5067842;28;20026;-41
2022/09/03 10:13:00;;;;;;;6.53;1.70;;;;;;;30.63;25.20;100975.78;5082035;28;20041;-42
2022/09/03 10:15:43;;;;;;;5.07;1.50;;;;;;;30.70;25.51;100965.47;5085100;28;20028;-43
2022/09/03 10:18:35;;;;;;;3.75;1.33;;;;;;;31.09;26.03;100964.72;5080370;28;20051;-43
2022/09/03 10:21:09;;;;;;;6.10;1.73;;;;;;;31.05;25.10;100969.06;5066180;28;20039;-44
2022/09/03 10:23:50;;;;;;;5.68;1.60;;;;;;;31.20;25.33;100965.72;5086203;28;20063;-44
2022/09/03 10:26:20;;;;;;;3.42;1.50;;;;;;;31.31;23.95;100962.00;5074867;28;20025;-43
2022/09/03 10:28:50;;;;;;;3.80;1.40;;;;;;;31.57;24.49;100962.38;5073109;28;20029;-43
2022/09/03 10:31:25;;;;;;;5.05;1.35;;;;;;;31.56;24.34;100960.72;5064954;28;20030;-44
2022/09/03 10:33:58;;;;;;;4.35;1.48;;;;;;;31.82;24.33;100959.13;5048015;28;20092;-43
2022/09/03 10:36:30;;;;;;;6.90;1.58;;;;;;;31.64;23.35;100961.13;5053326;28;20038;-43
2022/09/03 10:39:12;;;;;;;1.92;1.30;;;;;;;31.70;23.98;100960.06;5061878;28;20513;-44
2022/09/03 10:42:15;;;;;;;3.33;1.20;;;;;;;31.78;25.22;100964.31;5058289;28;20072;-44
2022/09/03 10:44:43;;;;;;;4.70;1.30;;;;;;;31.80;23.47;100962.13;5065419;28;20028;-42
2022/09/03 10:47:43;;;;;;;4.30;1.33;;;;;;;32.16;24.35;100959.81;5090320;28;20028;-44
2022/09/03 10:50:16;;;;;;;6.68;1.65;;;;;;;32.15;22.54;100962.81;5061376;28;20051;-42
2022/09/03 10:53:19;;;;;;;3.53;1.15;;;;;;;32.23;23.97;100957.66;5070460;28;20055;-43
2022/09/03 10:55:54;;;;;;;2.78;1.60;;;;;;;32.05;23.20;100958.00;5053245;28;20037;-42
2022/09/03 10:58:29;;;;;;;4.28;1.33;;;;;;;32.13;23.03;100954.81;5067436;28;20045;-47
2022/09/03 11:01:04;;;;;;;8.55;1.27;;;;;;;32.18;22.84;100954.06;5069269;28;20044;-43
2022/09/03 11:03:44;;;;;;;4.22;1.33;;;;;;;32.42;23.62;100958.09;5061675;28;20089;-43
2022/09/03 11:06:24;;;;;;;5.65;1.60;;;;;;;32.61;23.20;100955.84;5063500;28;20093;-44
2022/09/03 11:08:58;;;;;;;6.72;1.33;;;;;;;32.75;22.72;100961.72;5061427;28;20030;-44
2022/09/03 11:11:32;;;;;;;2.22;1.33;;;;;;;32.85;22.87;100946.38;5064970;28;20029;-43
2022/09/03 11:14:12;;;;;;;3.83;1.40;;;;;;;32.68;22.38;100957.53;5067199;28;20032;-44
2022/09/03 11:17:01;;;;;;;4.28;1.42;;;;;;;32.98;23.24;100948.69;5051588;28;20041;-43
2022/09/03 11:19:34;;;;;;;3.25;1.60;;;;;;;33.09;22.86;100944.91;5071711;28;20076;-45
2022/09/03 11:22:00;;;;;;;2.90;1.40;;;;;;;33.13;22.20;100950.69;5068850;28;20089;-42
2022/09/03 11:24:29;;;;;;;2.70;1.33;;;;;;;33.05;21.84;100943.75;5087684;28;20032;-43
2022/09/03 11:27:06;;;;;;;2.88;1.33;;;;;;;33.05;22.33;100941.00;5084330;28;20050;-42
2022/09/03 11:29:42;;;;;;;1.85;1.17;;;;;;;33.03;21.61;100942.38;5077668;28;20070;-42
2022/09/03 11:32:14;;;;;;;5.57;1.30;;;;;;;32.93;21.73;100948.66;5090706;28;20032;-45
2022/09/03 11:34:50;;;;;;;1.77;1.10;;;;;;;33.03;22.43;100939.63;5075981;28;20020;-43
2022/09/03 11:37:24;;;;;;;4.47;1.50;;;;;;;33.11;21.95;100944.59;5091011;28;20035;-43
2022/09/03 11:40:09;;;;;;;5.03;1.60;;;;;;;33.10;22.57;100932.78;5086803;28;20044;-43
2022/09/03 11:42:37;;;;;;;5.30;1.65;;;;;;;33.14;21.88;100935.81;5094126;28;20036;-43
2022/09/03 11:45:25;;;;;;;3.38;1.70;;;;;;;33.13;21.82;100932.25;5088054;28;20084;-44
2022/09/03 11:47:50;;;;;;;;;;;;;;;33.41;23.39;100929.38;5068734;28;21340;-44